Terminal Aerodrome Forecast
Issued by NWS Melbourne, FL

Home | Current Version | Previous Version | Text Only | Print | Product List | Glossary On
Versions: 1 2 3 4 5 6 7 8 9 10 11 12 13 14 15 16 17 18 19 20 21
000
FTUS42 KMLB 010203 AAA
TAFDAB
TAF AMD
KDAB 010203Z 0102/0124 19006KT 1SM TSRA SCT017CB BKN060 OVC110
     FM010230 17002KT P6SM VCSH SCT020 BKN060 OVC110
     FM010400 17002KT P6SM FEW030 BKN250
     FM011400 19005KT P6SM FEW020 SCT150 BKN250
     FM011800 20006KT P6SM VCSH SCT025 SCT050=

USA.gov is the U.S. government's official web portal to all federal, state and local government web resources and services.